Framingham Center, Massachusetts
Current Conditions -  °F | °C
As of 3:56 PM on Saturday 20 Dec 2014 (Local Time) from KBED Reporting Station
Overcast Overcast  
Wind Chill: 26°   Ceiling: 3300
Heat Index: 32°   Visibility: 10mi
Dew Point: 23°   Wind: 6mph
Humidity: 69%   Direction: 350°N
Pressure: 30.27"   Gusts: NA
Location:  42.3203°N, 71.4404°W
Report Text: KBED 202056Z AUTO 35005KT 10SM SCT025 OVC033 00/M05 A3027 RMK AO2 SLP266 T00001050 51004 TSNO
Loading
Personal Weather Stations






























Interactive Weather Map New forecast layout! Learn more

10-Day Weather Forecast

Advertisements
Track Severe Weather on mobile